createdAt,value
2018-10-09T00:02:11.853Z,18.37
2018-10-09T00:04:40.669Z,15.57
2018-10-09T00:07:09.432Z,11.57
2018-10-09T00:09:38.159Z,12.00
2018-10-09T00:12:06.939Z,9.37
2018-10-09T00:14:35.705Z,15.83
2018-10-09T00:17:04.448Z,16.10
2018-10-09T00:19:33.218Z,16.00
2018-10-09T00:22:01.992Z,13.73
2018-10-09T00:24:30.745Z,11.73
2018-10-09T00:26:59.479Z,20.63
2018-10-09T00:29:28.237Z,13.67
2018-10-09T00:31:56.979Z,10.63
2018-10-09T00:34:25.725Z,20.00
2018-10-09T00:36:54.523Z,10.97
2018-10-09T00:39:23.264Z,13.73
2018-10-09T00:41:52.360Z,15.20
2018-10-09T00:44:21.109Z,9.60
2018-10-09T00:46:49.833Z,16.50
2018-10-09T00:49:18.665Z,13.57
2018-10-09T00:51:47.517Z,10.27
2018-10-09T00:54:16.354Z,10.07
2018-10-09T00:56:45.171Z,18.97
2018-10-09T00:59:13.928Z,11.07
2018-10-09T01:01:42.730Z,17.37
2018-10-09T01:04:11.485Z,16.90
2018-10-09T01:06:40.248Z,17.97
2018-10-09T01:09:09.487Z,14.33
2018-10-09T01:11:38.270Z,16.33
2018-10-09T01:14:07.001Z,18.33
2018-10-09T01:16:35.803Z,24.37
2018-10-09T01:19:05.143Z,13.23
2018-10-09T01:21:34.165Z,17.93
2018-10-09T01:24:02.957Z,15.87
2018-10-09T01:26:31.716Z,20.57
2018-10-09T01:29:00.433Z,17.50
2018-10-09T01:31:29.209Z,18.97
2018-10-09T01:33:57.937Z,20.87
2018-10-09T01:36:26.696Z,18.00
2018-10-09T01:38:55.505Z,23.17
2018-10-09T01:41:24.235Z,20.17
2018-10-09T01:43:52.998Z,20.57
2018-10-09T01:46:21.746Z,15.80
2018-10-09T01:48:50.581Z,13.93
2018-10-09T01:51:19.328Z,15.57
2018-10-09T01:53:48.054Z,21.47
2018-10-09T01:56:16.858Z,18.53
2018-10-09T01:58:45.701Z,18.13
2018-10-09T02:01:14.477Z,17.33
2018-10-09T02:03:43.233Z,16.00
2018-10-09T02:06:11.965Z,15.80
2018-10-09T02:08:40.703Z,19.30
2018-10-09T02:11:09.421Z,20.47
2018-10-09T02:13:38.182Z,21.13
2018-10-09T02:16:07.514Z,23.73
2018-10-09T02:18:36.259Z,20.83
2018-10-09T02:21:05.066Z,18.10
2018-10-09T02:23:33.817Z,26.93
2018-10-09T02:26:02.607Z,22.13
2018-10-09T02:28:31.425Z,22.27
2018-10-09T02:31:00.150Z,21.80
2018-10-09T02:33:29.013Z,26.43
2018-10-09T02:35:57.754Z,19.70
2018-10-09T02:38:26.552Z,21.97
2018-10-09T02:40:55.321Z,24.70
2018-10-09T02:43:24.065Z,21.80
2018-10-09T02:45:52.805Z,33.43
2018-10-09T02:48:21.598Z,22.00
2018-10-09T02:50:50.350Z,16.07
2018-10-09T02:53:19.163Z,24.63
2018-10-09T02:55:47.901Z,19.10
2018-10-09T02:58:16.698Z,17.40
2018-10-09T03:00:45.434Z,21.40
2018-10-09T03:03:14.551Z,22.33
2018-10-09T03:05:43.297Z,29.63
2018-10-09T03:08:13.046Z,29.53
2018-10-09T03:10:41.814Z,29.20
2018-10-09T03:13:10.557Z,27.30
2018-10-09T03:15:39.844Z,36.53
2018-10-09T03:18:08.825Z,30.60
2018-10-09T03:20:37.669Z,27.77
2018-10-09T03:23:06.389Z,33.53
2018-10-09T03:25:35.213Z,23.57
2018-10-09T03:28:04.035Z,20.43
2018-10-09T03:30:32.792Z,23.50
2018-10-09T03:33:01.541Z,27.13
2018-10-09T03:35:30.285Z,24.80
2018-10-09T03:37:59.049Z,27.10
2018-10-09T03:40:27.813Z,26.97
2018-10-09T03:42:56.589Z,28.33
2018-10-09T03:45:25.373Z,23.40
2018-10-09T03:47:54.113Z,23.50
2018-10-09T03:50:22.861Z,22.70
2018-10-09T03:52:51.638Z,20.70
2018-10-09T03:55:20.377Z,22.33
2018-10-09T03:57:49.152Z,21.67
2018-10-09T04:00:17.980Z,21.27
2018-10-09T04:02:46.742Z,26.87
2018-10-09T04:05:15.481Z,24.73
2018-10-09T04:07:44.349Z,19.20
2018-10-09T04:10:13.153Z,23.53
2018-10-09T04:12:41.966Z,26.83
2018-10-09T04:15:10.716Z,22.90
2018-10-09T04:17:39.458Z,25.63
2018-10-09T04:20:08.357Z,25.30
2018-10-09T04:22:37.096Z,31.07
2018-10-09T04:25:05.972Z,37.10
2018-10-09T04:27:34.697Z,31.53
2018-10-09T04:30:03.473Z,28.13
2018-10-09T04:32:32.213Z,23.33
2018-10-09T04:35:02.253Z,23.83
2018-10-09T04:37:31.043Z,26.90
2018-10-09T04:39:59.793Z,23.60
2018-10-09T04:42:28.598Z,25.30
2018-10-09T04:44:57.433Z,24.80
2018-10-09T04:47:26.220Z,30.80
2018-10-09T04:49:55.018Z,57.07
2018-10-09T04:52:23.780Z,47.53
2018-10-09T04:54:53.250Z,51.50
2018-10-09T04:57:22.009Z,59.87
2018-10-09T04:59:50.927Z,69.77
2018-10-09T05:02:19.766Z,62.20
2018-10-09T05:04:48.752Z,60.80
2018-10-09T05:07:17.558Z,63.47
2018-10-09T05:09:46.438Z,56.33
2018-10-09T05:12:15.181Z,50.93
2018-10-09T05:14:44.043Z,49.17
2018-10-09T05:17:12.773Z,40.80
2018-10-09T05:19:41.706Z,41.93
2018-10-09T05:22:10.498Z,51.53
2018-10-09T05:24:39.265Z,45.73
2018-10-09T05:27:08.075Z,39.13
2018-10-09T05:29:36.848Z,36.93
2018-10-09T05:32:05.657Z,36.03
2018-10-09T05:34:34.597Z,32.67
2018-10-09T05:37:03.358Z,41.90
2018-10-09T05:39:32.093Z,38.20
2018-10-09T05:42:00.842Z,41.90
2018-10-09T05:44:29.636Z,37.33
2018-10-09T05:46:58.356Z,40.53
2018-10-09T05:49:27.106Z,42.17
2018-10-09T05:51:55.877Z,39.47
2018-10-09T05:54:24.993Z,39.00
2018-10-09T05:56:53.844Z,54.63
2018-10-09T05:59:22.613Z,37.50
2018-10-09T06:01:51.402Z,49.23
2018-10-09T06:04:20.222Z,40.87
2018-10-09T06:06:49.007Z,38.60
2018-10-09T06:09:17.934Z,38.70
2018-10-09T06:11:46.709Z,37.97
2018-10-09T06:14:15.480Z,39.20
2018-10-09T06:16:44.242Z,42.10
2018-10-09T06:19:13.056Z,40.43
2018-10-09T06:21:41.933Z,42.83
2018-10-09T06:24:10.794Z,47.00
2018-10-09T06:26:39.565Z,50.63
2018-10-09T06:29:08.325Z,42.77
2018-10-09T06:31:37.113Z,41.43
2018-10-09T06:34:05.933Z,38.53
2018-10-09T06:36:34.626Z,32.43
2018-10-09T06:39:04.445Z,31.93
2018-10-09T06:41:34.296Z,35.17
2018-10-09T06:44:03.232Z,33.60
2018-10-09T06:46:32.150Z,39.43
2018-10-09T06:49:00.965Z,37.93
2018-10-09T06:51:29.794Z,39.10
2018-10-09T06:53:59.296Z,35.43
2018-10-09T06:56:27.974Z,34.40
2018-10-09T06:58:56.825Z,24.50
2018-10-09T07:01:25.667Z,25.13
2018-10-09T07:03:54.443Z,24.47
2018-10-09T07:06:23.330Z,25.50
2018-10-09T07:08:52.134Z,21.83
2018-10-09T07:11:21.050Z,23.40
2018-10-09T07:13:49.686Z,22.83
2018-10-09T07:16:18.454Z,20.27
2018-10-09T07:18:47.238Z,30.03
2018-10-09T07:21:15.993Z,29.33
2018-10-09T07:23:44.771Z,25.93
2018-10-09T07:26:13.578Z,31.10
2018-10-09T07:28:42.355Z,23.77
2018-10-09T07:31:11.106Z,26.43
2018-10-09T07:33:39.931Z,24.37
2018-10-09T07:36:08.726Z,26.53
2018-10-09T07:38:37.526Z,21.33
2018-10-09T07:41:06.407Z,23.00
2018-10-09T07:43:35.172Z,32.43
2018-10-09T07:46:03.919Z,16.67
2018-10-09T07:48:32.663Z,21.80
2018-10-09T07:51:01.479Z,28.67
2018-10-09T07:53:30.262Z,23.97
2018-10-09T07:55:59.066Z,30.63
2018-10-09T07:58:27.884Z,19.97
2018-10-09T08:00:56.586Z,23.17
2018-10-09T08:03:25.416Z,22.27
2018-10-09T08:05:54.190Z,24.97
2018-10-09T08:08:23.121Z,19.87
2018-10-09T08:10:52.028Z,23.47
2018-10-09T08:13:20.760Z,27.70
2018-10-09T08:15:49.580Z,25.00
2018-10-09T08:18:18.351Z,19.00
2018-10-09T08:20:47.123Z,24.73
2018-10-09T08:23:15.860Z,22.27
2018-10-09T08:25:44.748Z,22.43
2018-10-09T08:28:13.525Z,20.70
2018-10-09T08:30:42.315Z,20.47
2018-10-09T08:33:11.078Z,20.53
2018-10-09T08:35:39.813Z,24.27
2018-10-09T08:38:08.649Z,24.40
2018-10-09T08:40:37.386Z,18.93
2018-10-09T08:43:06.145Z,22.73
2018-10-09T08:45:34.892Z,20.70
2018-10-09T08:48:03.698Z,24.30
2018-10-09T08:50:32.486Z,24.67
2018-10-09T08:53:01.257Z,26.83
2018-10-09T08:55:29.986Z,20.13
2018-10-09T08:57:59.445Z,22.00
2018-10-09T09:00:28.208Z,23.50
2018-10-09T09:02:57.026Z,19.13
2018-10-09T09:05:28.679Z,19.73
2018-10-09T09:07:57.565Z,18.30
2018-10-09T09:10:26.311Z,23.40
2018-10-09T09:12:55.054Z,26.93
2018-10-09T09:15:23.872Z,24.37
2018-10-09T09:17:52.585Z,23.33
2018-10-09T09:20:21.386Z,20.00
2018-10-09T09:22:50.154Z,29.37
2018-10-09T09:25:18.931Z,23.47
2018-10-09T09:27:47.773Z,20.27
2018-10-09T09:30:16.422Z,22.57
2018-10-09T09:32:46.010Z,28.03
2018-10-09T09:35:14.866Z,21.13
2018-10-09T09:37:43.617Z,21.63
2018-10-09T09:40:12.367Z,18.40
2018-10-09T09:42:41.156Z,17.87
2018-10-09T09:45:09.903Z,23.33
2018-10-09T09:47:38.648Z,20.20
2018-10-09T09:50:07.560Z,17.47
2018-10-09T09:52:36.330Z,19.87
2018-10-09T09:55:05.166Z,21.67
2018-10-09T09:57:33.935Z,23.20
2018-10-09T10:00:02.777Z,18.70
2018-10-09T10:02:32.046Z,16.07
2018-10-09T10:05:00.850Z,16.47
2018-10-09T10:07:29.862Z,20.97
2018-10-09T10:09:58.702Z,16.50
2018-10-09T10:12:27.446Z,20.93
2018-10-09T10:14:56.286Z,14.53
2018-10-09T10:17:25.044Z,30.57
2018-10-09T10:19:53.843Z,22.33
2018-10-09T10:22:22.654Z,17.63
2018-10-09T10:24:51.994Z,14.00
2018-10-09T10:27:20.714Z,21.23
2018-10-09T10:29:49.526Z,17.70
2018-10-09T10:32:18.307Z,19.47
2018-10-09T10:34:47.078Z,24.30
2018-10-09T10:37:15.936Z,19.90
2018-10-09T10:39:44.649Z,14.17
2018-10-09T10:42:13.543Z,11.70
2018-10-09T10:44:42.261Z,17.10
2018-10-09T10:47:11.068Z,16.43
2018-10-09T10:49:39.845Z,15.87
2018-10-09T10:52:08.633Z,18.10
2018-10-09T10:54:37.466Z,21.97
2018-10-09T10:57:06.314Z,20.47
2018-10-09T10:59:35.082Z,13.47
2018-10-09T11:02:03.854Z,18.90
2018-10-09T11:04:32.593Z,13.93
2018-10-09T11:07:01.371Z,16.57
2018-10-09T11:09:30.196Z,15.63
2018-10-09T11:11:58.938Z,17.07
2018-10-09T11:14:27.763Z,18.80
2018-10-09T11:16:57.093Z,17.27
2018-10-09T11:19:25.850Z,18.93
2018-10-09T11:21:54.598Z,19.73
2018-10-09T11:24:23.377Z,12.97
2018-10-09T11:26:52.147Z,18.37
2018-10-09T11:29:20.914Z,16.33
2018-10-09T11:31:49.673Z,22.47
2018-10-09T11:34:18.439Z,20.07
2018-10-09T11:36:47.191Z,16.57
2018-10-09T11:39:15.926Z,22.07
2018-10-09T11:41:44.802Z,16.40
2018-10-09T11:44:13.605Z,18.77
2018-10-09T11:46:42.378Z,19.77
2018-10-09T11:49:11.199Z,14.93
2018-10-09T11:51:39.975Z,17.67
2018-10-09T11:54:08.707Z,18.20
2018-10-09T11:56:37.506Z,12.80
2018-10-09T11:59:06.321Z,20.20
2018-10-09T12:01:35.045Z,16.87
2018-10-09T12:04:03.806Z,13.07
2018-10-09T12:06:32.606Z,17.77
2018-10-09T12:09:01.408Z,18.57
2018-10-09T12:11:30.157Z,14.27
2018-10-09T12:13:58.927Z,13.83
2018-10-09T12:16:27.690Z,14.37
2018-10-09T12:18:56.447Z,19.53
2018-10-09T12:21:25.288Z,16.53
2018-10-09T12:23:54.000Z,13.80
2018-10-09T12:26:22.777Z,14.50
2018-10-09T12:28:51.558Z,16.87
2018-10-09T12:31:20.325Z,20.47
2018-10-09T12:33:49.658Z,26.10
2018-10-09T12:36:18.421Z,17.40
2018-10-09T12:38:47.141Z,19.80
2018-10-09T12:41:15.887Z,14.30
2018-10-09T12:43:44.744Z,12.67
2018-10-09T12:46:13.574Z,22.83
2018-10-09T12:48:42.363Z,16.60
2018-10-09T12:51:11.090Z,17.77
2018-10-09T12:53:39.892Z,17.13
2018-10-09T12:58:43.805Z,13.93
2018-10-09T13:01:12.558Z,11.33
2018-10-09T13:03:41.298Z,12.13
2018-10-09T13:06:10.074Z,11.27
2018-10-09T13:08:38.825Z,14.53
2018-10-09T13:11:07.685Z,18.43
2018-10-09T13:13:36.471Z,18.03
2018-10-09T13:16:05.245Z,16.93
2018-10-09T13:18:34.034Z,16.43
2018-10-09T13:21:04.030Z,10.83
2018-10-09T13:23:32.622Z,12.20
2018-10-09T13:26:01.382Z,8.63
2018-10-09T13:28:30.210Z,13.60
2018-10-09T13:30:59.080Z,13.60
2018-10-09T13:33:27.777Z,38.60
2018-10-09T13:35:56.523Z,12.07
2018-10-09T13:38:25.379Z,19.17
2018-10-09T13:40:54.170Z,11.00
2018-10-09T13:43:23.011Z,15.50
2018-10-09T13:45:51.718Z,15.97
2018-10-09T13:48:20.511Z,13.57
2018-10-09T13:50:49.402Z,8.27
2018-10-09T13:53:18.099Z,12.90
2018-10-09T13:55:46.855Z,11.47
2018-10-09T13:58:15.638Z,7.80
2018-10-09T14:00:44.434Z,7.83
2018-10-09T14:03:14.031Z,11.07
2018-10-09T14:05:42.841Z,14.53
2018-10-09T14:08:11.794Z,12.47
2018-10-09T14:10:40.763Z,9.87
2018-10-09T14:13:09.852Z,12.43
2018-10-09T14:15:38.869Z,7.63
2018-10-09T14:18:07.634Z,8.20
2018-10-09T14:20:36.422Z,8.83
2018-10-09T14:23:05.208Z,10.07
2018-10-09T14:25:34.011Z,10.07
2018-10-09T14:28:16.608Z,8.50
2018-10-09T14:30:45.377Z,9.80
2018-10-09T14:33:14.246Z,8.53
2018-10-09T14:35:43.166Z,10.17
2018-10-09T14:38:11.788Z,9.70
2018-10-09T14:40:40.531Z,9.13
2018-10-09T14:43:09.318Z,11.03
2018-10-09T14:45:38.053Z,7.93
2018-10-09T14:48:06.819Z,8.87
2018-10-09T14:50:35.553Z,7.20
2018-10-09T14:53:04.355Z,7.23
2018-10-09T14:55:33.159Z,7.00
2018-10-09T14:58:01.904Z,9.00
2018-10-09T15:00:30.647Z,9.80
2018-10-09T15:02:59.456Z,7.00
2018-10-09T15:05:28.206Z,6.93
2018-10-09T15:07:56.942Z,9.13
2018-10-09T15:10:25.702Z,9.77
2018-10-09T15:12:54.466Z,8.37
2018-10-09T15:15:23.221Z,7.57
2018-10-09T15:17:51.986Z,8.13
2018-10-09T15:20:20.791Z,6.50
2018-10-09T15:22:49.622Z,7.87
2018-10-09T15:25:18.409Z,6.63
2018-10-09T15:27:48.707Z,4.40
2018-10-09T15:30:17.758Z,5.00
2018-10-09T15:32:46.585Z,5.13
2018-10-09T15:35:15.457Z,8.33
2018-10-09T15:37:44.101Z,6.97
2018-10-09T15:40:12.860Z,12.20
2018-10-09T15:42:41.659Z,9.00
2018-10-09T15:45:10.439Z,11.80
2018-10-09T15:47:39.269Z,9.63
2018-10-09T15:50:08.023Z,9.30
2018-10-09T15:52:36.884Z,4.43
2018-10-09T15:55:05.675Z,7.07
2018-10-09T15:57:34.463Z,5.63
2018-10-09T16:00:03.279Z,10.10
2018-10-09T16:02:32.109Z,7.60
2018-10-09T16:05:00.842Z,4.67
2018-10-09T16:07:29.582Z,10.33
2018-10-09T16:09:58.375Z,6.47
2018-10-09T16:12:27.094Z,6.20
2018-10-09T16:14:55.841Z,4.90
2018-10-09T16:17:24.642Z,4.37
2018-10-09T16:19:53.417Z,8.70
2018-10-09T16:22:22.311Z,6.77
2018-10-09T16:24:51.129Z,4.90
2018-10-09T16:27:19.882Z,5.87
2018-10-09T16:29:48.610Z,10.47
2018-10-09T16:32:17.439Z,5.40
2018-10-09T16:34:46.186Z,6.63
2018-10-09T16:37:15.032Z,6.87
2018-10-09T16:39:43.819Z,3.83
2018-10-09T16:42:12.554Z,5.97
2018-10-09T16:44:41.362Z,4.13
2018-10-09T16:47:10.125Z,6.77
2018-10-09T16:49:39.243Z,17.20
2018-10-09T16:52:08.100Z,10.07
2018-10-09T16:54:36.886Z,6.37
2018-10-09T16:57:05.675Z,6.90
2018-10-09T16:59:34.552Z,6.60
2018-10-09T17:02:03.265Z,4.60
2018-10-09T17:04:32.102Z,10.90
2018-10-09T17:07:00.928Z,7.47
2018-10-09T17:09:29.670Z,7.73
2018-10-09T17:11:58.399Z,8.00
2018-10-09T17:14:27.198Z,6.80
2018-10-09T17:16:55.949Z,7.00
2018-10-09T17:19:24.700Z,5.93
2018-10-09T17:21:53.602Z,10.03
2018-10-09T17:24:22.366Z,7.63
2018-10-09T17:26:51.199Z,4.80
2018-10-09T17:29:19.894Z,11.50
2018-10-09T17:31:48.627Z,8.13
2018-10-09T17:34:17.972Z,6.53
2018-10-09T17:36:46.703Z,7.83
2018-10-09T17:39:15.552Z,6.13
2018-10-09T17:41:44.278Z,8.90
2018-10-09T17:44:13.127Z,8.13
2018-10-09T17:46:41.889Z,10.40
2018-10-09T17:49:10.606Z,7.27
2018-10-09T17:51:39.377Z,9.73
2018-10-09T17:54:08.160Z,11.53
2018-10-09T17:56:36.854Z,12.73
2018-10-09T17:59:05.709Z,15.00
2018-10-09T18:01:34.522Z,8.47
2018-10-09T18:04:03.315Z,13.73
2018-10-09T18:06:32.051Z,9.57
2018-10-09T18:09:00.826Z,13.00
2018-10-09T18:11:29.634Z,9.33
2018-10-09T18:13:58.437Z,21.37
2018-10-09T18:16:27.185Z,9.27
2018-10-09T18:18:55.935Z,13.50
2018-10-09T18:21:24.662Z,15.53
2018-10-09T18:23:53.474Z,14.30
2018-10-09T18:26:22.233Z,15.60
2018-10-09T18:28:50.998Z,13.70
2018-10-09T18:31:19.742Z,12.20
2018-10-09T18:33:48.511Z,8.70
2018-10-09T18:36:17.298Z,10.40
2018-10-09T18:38:47.938Z,9.30
2018-10-09T18:41:16.841Z,11.07
2018-10-09T18:43:45.450Z,11.53
2018-10-09T18:46:14.252Z,12.33
2018-10-09T18:48:43.070Z,18.47
2018-10-09T18:51:11.841Z,14.37
2018-10-09T18:53:40.631Z,10.33
2018-10-09T18:56:09.491Z,16.70
2018-10-09T18:58:38.280Z,13.87
2018-10-09T19:01:07.114Z,17.60
2018-10-09T19:03:35.907Z,13.70
2018-10-09T19:06:04.706Z,15.17
2018-10-09T19:08:33.494Z,12.97
2018-10-09T19:11:02.381Z,14.83
2018-10-09T19:13:31.155Z,14.50
2018-10-09T19:16:00.246Z,15.13
2018-10-09T19:18:29.929Z,14.93
2018-10-09T19:20:59.607Z,11.17
2018-10-09T19:23:28.504Z,13.23
2018-10-09T19:25:57.290Z,12.43
2018-10-09T19:28:26.097Z,11.63
2018-10-09T19:30:54.883Z,17.73
2018-10-09T19:33:23.661Z,12.50
2018-10-09T19:35:52.394Z,14.93
2018-10-09T19:38:21.239Z,19.12
2018-10-09T19:40:49.999Z,20.07
2018-10-09T19:43:18.774Z,23.10
2018-10-09T19:45:47.554Z,16.40
2018-10-09T19:48:16.291Z,15.97
2018-10-09T19:50:45.119Z,23.97
2018-10-09T19:53:13.804Z,15.97
2018-10-09T19:55:42.551Z,21.67
2018-10-09T19:58:11.311Z,24.95
2018-10-09T20:00:41.905Z,41.60
2018-10-09T20:03:10.925Z,27.40
2018-10-09T20:05:39.753Z,21.07
2018-10-09T20:08:08.811Z,26.00
2018-10-09T20:10:37.634Z,29.87
2018-10-09T20:13:06.736Z,24.57
2018-10-09T20:15:35.530Z,26.87
2018-10-09T20:18:04.512Z,24.53
2018-10-09T20:20:33.551Z,25.83
2018-10-09T20:23:02.599Z,42.30
2018-10-09T20:25:31.615Z,29.97
2018-10-09T20:28:00.661Z,24.93
2018-10-09T20:30:29.499Z,29.70
2018-10-09T20:32:58.682Z,24.83
2018-10-09T20:35:27.613Z,24.97
2018-10-09T20:37:56.824Z,28.90
2018-10-09T20:40:25.583Z,24.17
2018-10-09T20:42:54.358Z,29.77
2018-10-09T20:45:23.122Z,21.40
2018-10-09T20:47:51.943Z,26.17
2018-10-09T20:50:20.743Z,18.40
2018-10-09T20:52:49.781Z,28.53
2018-10-09T20:55:18.560Z,22.10
2018-10-09T20:57:47.315Z,21.97
2018-10-09T21:00:17.132Z,28.30
2018-10-09T21:02:45.903Z,30.17
2018-10-09T21:05:14.704Z,22.70
2018-10-09T21:07:43.465Z,24.45
2018-10-09T21:10:12.215Z,26.07
2018-10-09T21:12:40.990Z,21.77
2018-10-09T21:15:09.747Z,25.27
2018-10-09T21:17:38.802Z,26.33
2018-10-09T21:20:08.578Z,24.37
2018-10-09T21:22:37.402Z,33.50
2018-10-09T21:25:06.213Z,29.87
2018-10-09T21:27:35.006Z,29.73
2018-10-09T21:30:04.767Z,32.33
2018-10-09T21:32:33.519Z,28.00
2018-10-09T21:35:02.358Z,29.63
2018-10-09T21:37:33.749Z,27.17
2018-10-09T21:40:03.510Z,29.27
2018-10-09T21:42:32.246Z,25.43
2018-10-09T21:45:02.464Z,33.90
2018-10-09T21:47:32.931Z,23.03
2018-10-09T21:50:02.841Z,30.20
2018-10-09T21:52:33.223Z,23.93
2018-10-09T21:55:04.320Z,32.33
2018-10-09T21:57:33.258Z,31.00
2018-10-09T22:00:02.246Z,27.67
2018-10-09T22:02:31.027Z,29.07
2018-10-09T22:04:59.778Z,22.90
2018-10-09T22:07:28.579Z,28.83
2018-10-09T22:09:57.362Z,22.53
2018-10-09T22:12:26.154Z,25.70
2018-10-09T22:14:54.899Z,27.60
2018-10-09T22:17:23.643Z,23.40
2018-10-09T22:19:52.396Z,30.90
2018-10-09T22:22:21.215Z,27.25
2018-10-09T22:24:50.086Z,22.33
2018-10-09T22:27:18.843Z,26.77
2018-10-09T22:29:47.637Z,25.47
2018-10-09T22:32:16.700Z,20.80
2018-10-09T22:34:45.743Z,23.67
2018-10-09T22:37:14.522Z,25.23
2018-10-09T22:39:43.271Z,25.10
2018-10-09T22:42:12.143Z,20.83
2018-10-09T22:44:40.906Z,29.37
2018-10-09T22:47:09.683Z,23.83
2018-10-09T22:49:38.427Z,29.10
2018-10-09T22:52:07.217Z,24.53
2018-10-09T22:54:35.979Z,28.67
2018-10-09T22:57:04.749Z,30.33
2018-10-09T22:59:33.551Z,23.67
2018-10-09T23:02:02.424Z,27.23
2018-10-09T23:04:31.190Z,30.53
2018-10-09T23:06:59.930Z,26.23
2018-10-09T23:09:28.686Z,31.27
2018-10-09T23:11:58.002Z,23.07
2018-10-09T23:14:26.742Z,19.90
2018-10-09T23:16:55.530Z,27.60
2018-10-09T23:19:24.393Z,36.43
2018-10-09T23:21:53.154Z,30.80
2018-10-09T23:24:21.919Z,31.23
2018-10-09T23:26:50.655Z,29.93
2018-10-09T23:29:19.498Z,22.47
2018-10-09T23:31:48.259Z,26.97
2018-10-09T23:34:17.041Z,24.25
2018-10-09T23:36:45.882Z,26.20
2018-10-09T23:39:14.663Z,29.00
2018-10-09T23:41:43.456Z,29.07
2018-10-09T23:44:12.251Z,23.60
2018-10-09T23:46:41.027Z,22.27
2018-10-09T23:49:09.777Z,27.90
2018-10-09T23:51:38.674Z,31.43
2018-10-09T23:54:07.404Z,21.60
2018-10-09T23:56:36.178Z,25.10
2018-10-09T23:59:04.926Z,24.60
